createdAt,value
2017-10-02T00:02:10.145Z,62.88
2017-10-02T00:07:12.092Z,63.02
2017-10-02T00:12:15.021Z,62.45
2017-10-02T00:17:17.614Z,63.20
2017-10-02T00:22:19.986Z,63.14
2017-10-02T00:27:22.606Z,63.57
2017-10-02T00:32:24.623Z,63.28
2017-10-02T00:37:27.262Z,63.17
2017-10-02T00:42:29.974Z,63.10
2017-10-02T00:47:32.667Z,63.08
2017-10-02T00:52:35.482Z,62.75
2017-10-02T00:57:37.948Z,63.38
2017-10-02T01:02:41.142Z,62.92
2017-10-02T01:07:43.689Z,63.18
2017-10-02T01:12:46.514Z,63.29
2017-10-02T01:17:49.194Z,63.07
2017-10-02T01:22:51.551Z,62.59
2017-10-02T01:27:54.082Z,63.14
2017-10-02T01:32:56.326Z,62.88
2017-10-02T01:37:58.851Z,62.92
2017-10-02T01:43:02.169Z,63.15
2017-10-02T01:48:04.866Z,63.42
2017-10-02T01:53:07.576Z,63.37
2017-10-02T01:58:09.866Z,63.27
2017-10-02T02:03:11.797Z,63.06
2017-10-02T02:08:13.982Z,62.79
2017-10-02T02:13:16.492Z,62.65
2017-10-02T02:18:19.138Z,62.58
2017-10-02T02:23:22.472Z,62.65
2017-10-02T02:28:25.114Z,62.47
2017-10-02T02:33:27.794Z,62.13
2017-10-02T02:38:30.111Z,61.88
2017-10-02T02:43:32.719Z,62.11
2017-10-02T02:48:35.419Z,61.70
2017-10-02T02:53:38.010Z,61.76
2017-10-02T02:58:40.092Z,61.84
2017-10-02T03:03:42.758Z,61.71
2017-10-02T03:08:45.375Z,61.46
2017-10-02T03:13:48.068Z,61.61
2017-10-02T03:18:50.121Z,62.59
2017-10-02T03:23:52.395Z,63.45
2017-10-02T03:28:55.218Z,64.48
2017-10-02T03:33:58.037Z,65.00
2017-10-02T03:39:00.666Z,65.63
2017-10-02T03:44:03.297Z,66.69
2017-10-02T03:49:05.864Z,67.31
2017-10-02T03:54:10.872Z,68.03
2017-10-02T03:59:13.786Z,68.92
2017-10-02T04:04:15.851Z,69.23
2017-10-02T04:09:18.111Z,69.43
2017-10-02T04:14:20.721Z,70.12
2017-10-02T04:19:24.321Z,70.68
2017-10-02T04:24:26.794Z,70.91
2017-10-02T04:29:28.795Z,71.56
2017-10-02T04:34:33.023Z,71.74
2017-10-02T04:39:37.039Z,71.97
2017-10-02T04:44:39.880Z,72.56
2017-10-02T04:49:42.141Z,72.62
2017-10-02T04:54:44.780Z,73.29
2017-10-02T04:59:53.603Z,73.36
2017-10-02T05:04:56.193Z,74.00
2017-10-02T05:09:58.821Z,74.30
2017-10-02T05:15:02.177Z,74.26
2017-10-02T05:20:04.298Z,74.66
2017-10-02T05:25:07.061Z,74.63
2017-10-02T05:30:13.043Z,74.81
2017-10-02T05:35:15.974Z,74.79
2017-10-02T05:40:19.644Z,75.06
2017-10-02T05:45:22.296Z,75.01
2017-10-02T05:50:25.202Z,75.23
2017-10-02T05:55:32.142Z,75.73
2017-10-02T06:00:38.056Z,75.82
2017-10-02T06:05:45.011Z,75.96
2017-10-02T06:10:48.120Z,75.96
2017-10-02T06:15:52.707Z,75.89
2017-10-02T06:20:55.061Z,76.12
2017-10-02T06:25:57.344Z,75.80
2017-10-02T06:30:59.996Z,76.18
2017-10-02T06:36:02.460Z,76.65
2017-10-02T06:41:05.133Z,76.11
2017-10-02T06:46:08.536Z,75.94
2017-10-02T06:51:10.763Z,76.08
2017-10-02T06:56:13.119Z,76.32
2017-10-02T07:01:15.966Z,76.13
2017-10-02T07:06:18.023Z,76.60
2017-10-02T07:11:20.793Z,76.67
2017-10-02T07:16:23.447Z,76.57
2017-10-02T07:21:26.099Z,76.84
2017-10-02T07:26:28.075Z,76.75
2017-10-02T07:31:30.063Z,76.55
2017-10-02T07:36:32.595Z,76.38
2017-10-02T07:41:34.962Z,76.10
2017-10-02T07:46:37.730Z,76.33
2017-10-02T07:51:40.344Z,76.47
2017-10-02T07:56:43.674Z,76.00
2017-10-02T08:01:45.800Z,76.22
2017-10-02T08:06:47.777Z,76.06
2017-10-02T08:11:50.183Z,76.08
2017-10-02T08:16:53.001Z,76.07
2017-10-02T08:21:55.637Z,75.93
2017-10-02T08:26:58.310Z,75.51
2017-10-02T08:32:00.882Z,75.62
2017-10-02T08:37:03.698Z,75.76
2017-10-02T08:42:06.912Z,76.06
2017-10-02T08:47:09.674Z,75.57
2017-10-02T08:52:13.056Z,75.05
2017-10-02T08:57:16.449Z,74.83
2017-10-02T09:02:19.096Z,74.70
2017-10-02T09:07:21.928Z,74.75
2017-10-02T09:12:24.610Z,74.75
2017-10-02T09:17:26.824Z,74.91
2017-10-02T09:22:28.793Z,74.93
2017-10-02T09:27:31.498Z,74.87
2017-10-02T09:32:34.430Z,75.23
2017-10-02T09:37:36.999Z,75.08
2017-10-02T09:42:39.277Z,75.30
2017-10-02T09:47:41.968Z,74.09
2017-10-02T09:52:44.404Z,72.74
2017-10-02T09:57:47.033Z,71.25
2017-10-02T10:02:50.359Z,70.44
2017-10-02T10:07:52.981Z,69.90
2017-10-02T10:12:56.355Z,68.74
2017-10-02T10:17:59.712Z,68.68
2017-10-02T10:23:02.293Z,68.28
2017-10-02T10:28:04.833Z,67.42
2017-10-02T10:33:06.958Z,67.82
2017-10-02T10:38:09.666Z,67.19
2017-10-02T10:43:12.343Z,66.69
2017-10-02T10:48:15.043Z,66.62
2017-10-02T10:53:17.298Z,66.56
2017-10-02T10:58:20.089Z,67.46
2017-10-02T11:03:22.712Z,67.75
2017-10-02T11:08:25.408Z,67.63
2017-10-02T11:13:28.089Z,67.53
2017-10-02T11:18:30.836Z,67.50
2017-10-02T11:23:33.446Z,67.53
2017-10-02T11:28:36.137Z,66.53
2017-10-02T11:33:38.101Z,66.15
2017-10-02T11:38:40.726Z,66.15
2017-10-02T11:43:42.716Z,66.05
2017-10-02T11:48:45.537Z,66.34
2017-10-02T11:53:48.364Z,67.03
2017-10-02T11:58:51.651Z,66.57
2017-10-02T12:03:54.529Z,65.24
2017-10-02T12:08:57.214Z,64.94
2017-10-02T12:13:59.938Z,63.17
2017-10-02T12:19:02.555Z,63.27
2017-10-02T12:24:05.925Z,63.49
2017-10-02T12:29:09.618Z,64.53
2017-10-02T12:34:12.214Z,65.72
2017-10-02T12:39:14.864Z,65.59
2017-10-02T12:44:22.786Z,63.99
2017-10-02T12:49:28.249Z,62.91
2017-10-02T12:54:31.027Z,62.18
2017-10-02T12:59:35.092Z,61.18
2017-10-02T13:04:40.468Z,60.71
2017-10-02T13:09:43.143Z,61.67
2017-10-02T13:14:46.327Z,61.19
2017-10-02T13:19:49.026Z,61.88
2017-10-02T13:24:53.122Z,62.13
2017-10-02T13:30:01.005Z,61.85
2017-10-02T13:35:06.787Z,61.62
2017-10-02T13:40:08.951Z,61.33
2017-10-02T13:45:11.519Z,60.64
2017-10-02T13:50:16.905Z,59.48
2017-10-02T13:55:23.946Z,60.32
2017-10-02T14:00:30.662Z,60.67
2017-10-02T14:05:38.092Z,60.19
2017-10-02T14:10:40.773Z,59.99
2017-10-02T14:21:03.450Z,60.87
2017-10-02T14:26:05.538Z,60.46
2017-10-02T14:31:15.216Z,59.38
2017-10-02T14:36:19.753Z,57.39
2017-10-02T14:41:22.184Z,56.46
2017-10-02T14:46:24.674Z,56.49
2017-10-02T14:51:27.940Z,57.42
2017-10-02T14:56:34.839Z,55.56
2017-10-02T15:01:37.787Z,55.93
2017-10-02T15:06:40.109Z,55.52
2017-10-02T15:11:43.714Z,56.72
2017-10-02T15:16:46.429Z,55.50
2017-10-02T15:21:49.363Z,55.98
2017-10-02T15:26:51.596Z,56.94
2017-10-02T15:31:53.879Z,57.32
2017-10-02T15:36:56.594Z,57.91
2017-10-02T15:41:59.318Z,57.98
2017-10-02T15:47:02.942Z,57.95
2017-10-02T15:52:05.433Z,58.06
2017-10-02T15:57:08.246Z,58.23
2017-10-02T16:02:10.930Z,58.96
2017-10-02T16:07:13.668Z,59.20
2017-10-02T16:12:15.735Z,59.47
2017-10-02T16:17:17.890Z,59.40
2017-10-02T16:22:22.397Z,58.42
2017-10-02T16:27:25.196Z,59.14
2017-10-02T16:32:27.899Z,58.31
2017-10-02T16:37:30.603Z,58.28
2017-10-02T16:42:32.673Z,58.39
2017-10-02T16:47:34.728Z,58.75
2017-10-02T16:52:36.678Z,58.73
2017-10-02T16:57:38.741Z,59.22
2017-10-02T17:02:40.755Z,59.68
2017-10-02T17:07:42.765Z,59.35
2017-10-02T17:12:45.541Z,59.21
2017-10-02T17:17:48.291Z,59.93
2017-10-02T17:22:51.046Z,59.43
2017-10-02T17:27:53.007Z,59.54
2017-10-02T17:32:54.945Z,59.23
2017-10-02T17:37:56.987Z,60.01
2017-10-02T17:42:59.725Z,59.60
2017-10-02T17:48:01.788Z,60.59
2017-10-02T17:53:04.223Z,60.03
2017-10-02T17:58:06.922Z,60.29
2017-10-02T18:03:09.930Z,59.85
2017-10-02T18:08:12.163Z,59.68
2017-10-02T18:13:14.505Z,59.12
2017-10-02T18:18:17.337Z,59.11
2017-10-02T18:23:24.988Z,58.62
2017-10-02T18:28:30.307Z,58.63
2017-10-02T18:33:33.844Z,58.28
2017-10-02T18:38:37.351Z,58.30
2017-10-02T18:43:44.932Z,58.55
2017-10-02T18:48:47.981Z,58.49
2017-10-02T18:53:56.849Z,58.66
2017-10-02T18:59:05.136Z,58.20
2017-10-02T19:04:08.889Z,58.29
2017-10-02T19:09:10.925Z,58.27
2017-10-02T19:14:15.202Z,58.62
2017-10-02T19:19:20.701Z,58.17
2017-10-02T19:24:25.025Z,58.90
2017-10-02T19:29:27.972Z,58.65
2017-10-02T19:34:30.345Z,58.64
2017-10-02T19:39:33.157Z,58.79
2017-10-02T19:44:35.248Z,57.15
2017-10-02T19:49:38.223Z,57.43
2017-10-02T19:54:41.284Z,59.54
2017-10-02T19:59:44.486Z,60.48
2017-10-02T20:04:47.323Z,61.32
2017-10-02T20:09:49.329Z,61.41
2017-10-02T20:14:51.632Z,61.96
2017-10-02T20:19:53.979Z,62.60
2017-10-02T20:24:57.365Z,63.06
2017-10-02T20:29:59.711Z,63.54
2017-10-02T20:35:01.933Z,63.32
2017-10-02T20:40:04.367Z,62.01
2017-10-02T20:45:06.644Z,61.13
2017-10-02T20:50:08.827Z,61.41
2017-10-02T20:55:10.736Z,62.20
2017-10-02T21:00:12.700Z,62.38
2017-10-02T21:05:14.630Z,62.95
2017-10-02T21:10:16.565Z,62.84
2017-10-02T21:15:18.496Z,62.82
2017-10-02T21:20:21.184Z,62.96
2017-10-02T21:25:23.147Z,62.61
2017-10-02T21:30:25.106Z,62.76
2017-10-02T21:35:27.234Z,63.24
2017-10-02T21:40:29.191Z,63.75
2017-10-02T21:45:31.119Z,63.89
2017-10-02T21:50:33.038Z,63.80
2017-10-02T21:55:34.950Z,63.53
2017-10-02T22:00:36.896Z,63.51
2017-10-02T22:05:38.855Z,63.96
2017-10-02T22:10:40.806Z,64.47
2017-10-02T22:15:42.723Z,64.30
2017-10-02T22:20:44.651Z,64.68
2017-10-02T22:25:46.627Z,64.19
2017-10-02T22:30:48.607Z,63.92
2017-10-02T22:35:50.779Z,63.15
2017-10-02T22:40:53.701Z,62.94
2017-10-02T22:45:55.683Z,63.09
2017-10-02T22:50:58.226Z,63.16
2017-10-02T22:56:00.782Z,63.70
2017-10-02T23:01:03.249Z,65.17
2017-10-02T23:06:05.964Z,66.47
2017-10-02T23:11:08.528Z,66.51
2017-10-02T23:16:11.303Z,66.71
2017-10-02T23:21:13.991Z,66.69
2017-10-02T23:26:16.261Z,67.25
2017-10-02T23:31:18.939Z,67.37
2017-10-02T23:36:21.658Z,66.87
2017-10-02T23:41:24.279Z,67.37
2017-10-02T23:46:27.700Z,67.58
2017-10-02T23:51:30.195Z,67.41
2017-10-02T23:56:32.643Z,68.23
